createdAt,value
2023-03-11T00:00:13.584Z,3.90
2023-03-11T00:03:02.199Z,3.90
2023-03-11T00:05:49.154Z,3.80
2023-03-11T00:08:35.964Z,3.80
2023-03-11T00:11:23.014Z,3.80
2023-03-11T00:14:09.827Z,3.80
2023-03-11T00:16:56.970Z,3.80
2023-03-11T00:19:43.726Z,3.80
2023-03-11T00:22:30.821Z,3.70
2023-03-11T00:25:19.154Z,3.70
2023-03-11T00:28:11.197Z,3.70
2023-03-11T00:30:58.073Z,3.70
2023-03-11T00:33:45.150Z,3.60
2023-03-11T00:36:36.334Z,3.60
2023-03-11T00:39:23.397Z,3.60
2023-03-11T00:42:10.345Z,3.60
2023-03-11T00:44:57.181Z,3.60
2023-03-11T00:47:44.187Z,3.60
2023-03-11T00:50:33.574Z,3.60
2023-03-11T00:53:20.351Z,3.60
2023-03-11T00:56:12.083Z,3.60
2023-03-11T00:58:58.888Z,3.50
2023-03-11T01:01:45.778Z,3.50
2023-03-11T01:04:32.660Z,3.60
2023-03-11T01:07:19.634Z,3.60
2023-03-11T01:10:10.196Z,3.60
2023-03-11T01:12:57.400Z,3.60
2023-03-11T01:15:44.292Z,3.50
2023-03-11T01:18:31.153Z,3.50
2023-03-11T01:21:17.944Z,3.40
2023-03-11T01:24:05.119Z,3.30
2023-03-11T01:26:51.937Z,3.30
2023-03-11T01:29:38.780Z,3.30
2023-03-11T01:32:25.734Z,3.30
2023-03-11T01:35:14.966Z,3.30
2023-03-11T01:38:02.092Z,3.30
2023-03-11T01:40:51.085Z,3.30
2023-03-11T01:43:43.834Z,3.30
2023-03-11T01:46:52.472Z,3.30
2023-03-11T01:49:42.184Z,3.30
2023-03-11T01:52:29.768Z,3.30
2023-03-11T01:55:18.657Z,3.20
2023-03-11T01:58:10.797Z,3.20
2023-03-11T02:00:59.746Z,3.00
2023-03-11T02:03:46.708Z,2.90
2023-03-11T02:06:33.993Z,2.80
2023-03-11T02:09:22.395Z,2.90
2023-03-11T02:12:11.564Z,2.80
2023-03-11T02:14:58.461Z,2.70
2023-03-11T02:17:45.373Z,2.70
2023-03-11T02:20:44.093Z,2.80
2023-03-11T02:23:55.753Z,2.90
2023-03-11T02:27:08.193Z,3.00
2023-03-11T02:29:56.818Z,3.10
2023-03-11T02:32:48.453Z,3.20
2023-03-11T02:35:35.406Z,3.20
2023-03-11T02:38:22.333Z,3.20
2023-03-11T02:41:09.393Z,3.20
2023-03-11T02:43:56.805Z,3.20
2023-03-11T02:46:44.446Z,3.20
2023-03-11T02:49:32.153Z,3.10
2023-03-11T02:52:20.193Z,3.20
2023-03-11T02:55:08.427Z,3.20
2023-03-11T02:57:55.220Z,3.20
2023-03-11T03:00:42.327Z,3.20
2023-03-11T03:03:29.293Z,3.20
2023-03-11T03:06:16.469Z,3.20
2023-03-11T03:09:03.769Z,3.30
2023-03-11T03:11:50.792Z,3.20
2023-03-11T03:14:37.585Z,3.20
2023-03-11T03:17:25.215Z,3.20
2023-03-11T03:20:13.988Z,3.10
2023-03-11T03:23:00.903Z,3.10
2023-03-11T03:25:47.791Z,3.20
2023-03-11T03:28:34.653Z,3.10
2023-03-11T03:31:21.604Z,3.10
2023-03-11T03:34:08.965Z,3.10
2023-03-11T03:36:55.730Z,3.00
2023-03-11T03:39:42.578Z,3.00
2023-03-11T03:42:29.579Z,2.90
2023-03-11T03:45:16.477Z,2.90
2023-03-11T03:48:03.256Z,2.90
2023-03-11T03:50:50.231Z,2.90
2023-03-11T03:53:37.411Z,2.90
2023-03-11T03:56:24.233Z,2.80
2023-03-11T03:59:11.087Z,2.80
2023-03-11T04:01:58.324Z,2.70
2023-03-11T04:04:45.127Z,2.70
2023-03-11T04:07:34.795Z,2.70
2023-03-11T04:10:21.678Z,2.70
2023-03-11T04:13:08.583Z,2.70
2023-03-11T04:15:55.471Z,2.60
2023-03-11T04:18:42.288Z,2.60
2023-03-11T04:21:29.140Z,2.50
2023-03-11T04:24:16.013Z,2.50
2023-03-11T04:27:02.928Z,2.50
2023-03-11T04:29:49.761Z,2.60
2023-03-11T04:32:36.802Z,2.50
2023-03-11T04:35:23.729Z,2.50
2023-03-11T04:38:10.822Z,2.50
2023-03-11T04:41:07.609Z,2.60
2023-03-11T04:43:54.401Z,2.60
2023-03-11T04:46:41.293Z,2.60
2023-03-11T04:49:28.057Z,2.50
2023-03-11T04:52:14.880Z,2.50
2023-03-11T04:55:01.695Z,2.50
2023-03-11T04:57:48.554Z,2.50
2023-03-11T05:00:35.409Z,2.40
2023-03-11T05:03:22.382Z,2.40
2023-03-11T05:06:09.348Z,2.40
2023-03-11T05:08:56.232Z,2.30
2023-03-11T05:11:43.045Z,2.30
2023-03-11T05:14:29.851Z,2.30
2023-03-11T05:17:19.277Z,2.20
2023-03-11T05:20:08.222Z,2.10
2023-03-11T05:22:55.040Z,2.10
2023-03-11T05:25:41.965Z,2.10
2023-03-11T05:28:28.965Z,2.10
2023-03-11T05:31:15.857Z,2.10
2023-03-11T05:34:02.750Z,2.10
2023-03-11T05:36:49.659Z,2.00
2023-03-11T05:39:37.829Z,2.00
2023-03-11T05:42:24.801Z,2.00
2023-03-11T05:45:11.938Z,2.00
2023-03-11T05:47:58.820Z,1.90
2023-03-11T05:50:45.697Z,1.90
2023-03-11T05:53:32.478Z,1.80
2023-03-11T05:56:21.687Z,1.80
2023-03-11T05:59:09.106Z,1.80
2023-03-11T06:01:55.933Z,1.70
2023-03-11T06:04:43.074Z,1.70
2023-03-11T06:07:29.912Z,1.70
2023-03-11T06:10:16.972Z,1.70
2023-03-11T06:13:03.879Z,1.80
2023-03-11T06:15:50.747Z,1.90
2023-03-11T06:18:37.601Z,1.90
2023-03-11T06:21:26.772Z,1.90
2023-03-11T06:24:13.845Z,1.90
2023-03-11T06:27:00.635Z,1.80
2023-03-11T06:29:51.543Z,1.80
2023-03-11T06:32:38.489Z,1.80
2023-03-11T06:35:25.750Z,1.80
2023-03-11T06:38:12.731Z,1.90
2023-03-11T06:41:04.460Z,1.90
2023-03-11T06:43:51.542Z,2.00
2023-03-11T06:46:38.398Z,2.00
2023-03-11T06:49:25.240Z,2.10
2023-03-11T06:52:12.246Z,2.10
2023-03-11T06:54:59.137Z,2.20
2023-03-11T06:57:46.160Z,2.20
2023-03-11T07:00:33.130Z,2.30
2023-03-11T07:03:20.112Z,2.30
2023-03-11T07:06:07.468Z,2.30
2023-03-11T07:08:54.338Z,2.30
2023-03-11T07:11:41.212Z,2.40
2023-03-11T07:14:28.077Z,2.50
2023-03-11T07:17:15.458Z,2.50
2023-03-11T07:20:02.474Z,2.50
2023-03-11T07:22:49.306Z,2.50
2023-03-11T07:25:36.104Z,2.50
2023-03-11T07:28:24.756Z,2.50
2023-03-11T07:31:15.172Z,2.50
2023-03-11T07:34:04.608Z,2.60
2023-03-11T07:36:51.532Z,2.70
2023-03-11T07:39:39.512Z,2.80
2023-03-11T07:42:26.300Z,2.80
2023-03-11T07:45:13.225Z,2.70
2023-03-11T07:48:00.083Z,2.70
2023-03-11T07:50:46.910Z,2.60
2023-03-11T07:53:34.338Z,2.70
2023-03-11T07:56:23.742Z,2.80
2023-03-11T07:59:10.660Z,2.90
2023-03-11T08:01:57.891Z,2.90
2023-03-11T08:04:44.678Z,2.90
2023-03-11T08:07:32.516Z,2.90
2023-03-11T08:10:19.350Z,3.00
2023-03-11T08:13:06.160Z,3.00
2023-03-11T08:15:53.047Z,3.20
2023-03-11T08:18:40.391Z,3.30
2023-03-11T08:21:32.178Z,3.60
2023-03-11T08:24:19.440Z,3.80
2023-03-11T08:27:06.405Z,3.70
2023-03-11T08:29:53.330Z,3.70
2023-03-11T08:32:40.346Z,3.70
2023-03-11T08:35:27.407Z,3.80
2023-03-11T08:38:14.289Z,3.70
2023-03-11T08:41:01.858Z,3.50
2023-03-11T08:43:48.750Z,3.60
2023-03-11T08:46:38.548Z,3.90
2023-03-11T08:49:25.415Z,4.00
2023-03-11T08:52:12.355Z,3.90
2023-03-11T08:54:59.289Z,3.50
2023-03-11T08:57:46.167Z,3.50
2023-03-11T09:00:33.144Z,3.50
2023-03-11T09:03:19.981Z,3.70
2023-03-11T09:06:09.688Z,3.70
2023-03-11T09:08:57.168Z,3.80
2023-03-11T09:11:43.971Z,3.90
2023-03-11T09:14:30.783Z,4.00
2023-03-11T09:17:17.687Z,4.00
2023-03-11T09:20:05.726Z,4.10
2023-03-11T09:22:52.539Z,3.80
2023-03-11T09:25:39.400Z,3.80
2023-03-11T09:28:26.242Z,3.70
2023-03-11T09:31:13.349Z,3.50
2023-03-11T09:34:00.257Z,3.00
2023-03-11T09:36:47.628Z,2.90
2023-03-11T09:39:34.570Z,3.00
2023-03-11T09:42:59.224Z,3.10
2023-03-11T09:46:06.091Z,3.30
2023-03-11T09:49:30.126Z,3.50
2023-03-11T09:52:23.775Z,4.00
2023-03-11T09:55:40.815Z,4.50
2023-03-11T09:58:50.992Z,5.00
2023-03-11T10:01:42.824Z,5.30
2023-03-11T10:04:45.533Z,5.60
2023-03-11T10:07:45.502Z,5.80
2023-03-11T10:10:39.684Z,6.10
2023-03-11T10:13:53.009Z,6.40
2023-03-11T10:16:59.949Z,6.60
2023-03-11T10:19:54.223Z,6.80
2023-03-11T10:23:07.844Z,6.80
2023-03-11T10:25:54.852Z,6.70
2023-03-11T10:29:00.367Z,6.10
2023-03-11T10:32:11.511Z,5.60
2023-03-11T10:35:21.322Z,5.40
2023-03-11T10:38:30.760Z,5.40
2023-03-11T10:41:29.783Z,5.80
2023-03-11T10:44:39.373Z,6.50
2023-03-11T10:47:26.206Z,7.20
2023-03-11T10:50:18.041Z,7.40
2023-03-11T10:53:16.224Z,7.80
2023-03-11T10:56:03.259Z,12.20
2023-03-11T10:58:50.481Z,18.20
2023-03-11T11:01:37.571Z,22.70
2023-03-11T11:04:40.662Z,28.00
2023-03-11T11:07:31.141Z,31.20
2023-03-11T11:10:27.913Z,28.50
2023-03-11T11:13:14.714Z,26.40
2023-03-11T11:16:06.086Z,28.80
2023-03-11T11:19:15.296Z,31.00
2023-03-11T11:22:06.158Z,33.20
2023-03-11T11:24:55.181Z,36.30
2023-03-11T11:27:56.154Z,36.60
2023-03-11T11:31:04.524Z,35.30
2023-03-11T11:33:54.230Z,36.60
2023-03-11T11:36:41.134Z,36.60
2023-03-11T11:39:30.640Z,35.00
2023-03-11T11:42:21.850Z,31.20
2023-03-11T11:45:18.168Z,27.50
2023-03-11T11:48:14.471Z,29.20
2023-03-11T11:51:06.572Z,33.20
2023-03-11T11:54:03.484Z,35.40
2023-03-11T11:56:50.453Z,32.10
2023-03-11T11:59:37.408Z,28.00
2023-03-11T12:02:30.428Z,24.10
2023-03-11T12:05:20.462Z,21.00
2023-03-11T12:08:36.557Z,18.80
2023-03-11T12:11:34.316Z,17.10
2023-03-11T12:15:03.333Z,15.70
2023-03-11T12:17:55.894Z,14.50
2023-03-11T12:20:54.331Z,13.50
2023-03-11T12:24:21.422Z,12.80
2023-03-11T12:27:23.956Z,12.10
2023-03-11T12:30:19.122Z,11.40
2023-03-11T12:33:12.496Z,11.50
2023-03-11T12:36:00.616Z,14.40
2023-03-11T12:38:49.010Z,21.40
2023-03-11T12:41:40.052Z,27.80
2023-03-11T12:44:30.819Z,32.40
2023-03-11T12:47:23.262Z,35.50
2023-03-11T12:50:43.607Z,36.00
2023-03-11T12:53:45.813Z,33.70
2023-03-11T12:56:35.423Z,30.30
2023-03-11T12:59:43.421Z,31.70
2023-03-11T13:02:51.262Z,33.70
2023-03-11T13:06:08.677Z,35.10
2023-03-11T13:08:57.966Z,35.70
2023-03-11T13:11:47.709Z,34.40
2023-03-11T13:14:34.685Z,33.40
2023-03-11T13:17:30.902Z,32.10
2023-03-11T13:20:42.729Z,29.80
2023-03-11T13:23:34.288Z,27.50
2023-03-11T13:26:46.033Z,25.90
2023-03-11T13:29:52.298Z,23.10
2023-03-11T13:32:54.043Z,20.90
2023-03-11T13:36:10.093Z,19.70
2023-03-11T13:39:24.084Z,17.50
2023-03-11T13:42:40.375Z,16.70
2023-03-11T13:45:36.421Z,16.00
2023-03-11T13:48:36.112Z,14.80
2023-03-11T13:51:37.919Z,13.90
2023-03-11T13:54:52.717Z,13.50
2023-03-11T13:57:39.571Z,13.50
2023-03-11T14:00:29.276Z,13.50
2023-03-11T14:03:21.111Z,13.60
2023-03-11T14:06:12.225Z,13.60
2023-03-11T14:08:59.272Z,13.50
2023-03-11T14:11:49.508Z,13.40
2023-03-11T14:14:58.909Z,13.20
2023-03-11T14:17:48.630Z,13.10
2023-03-11T14:20:35.765Z,12.90
2023-03-11T14:23:28.172Z,12.70
2023-03-11T14:26:29.401Z,12.40
2023-03-11T14:29:19.150Z,12.10
2023-03-11T14:32:32.320Z,11.90
2023-03-11T14:35:21.037Z,11.60
2023-03-11T14:38:22.195Z,11.40
2023-03-11T14:41:15.000Z,11.20
2023-03-11T14:44:02.622Z,11.20
2023-03-11T14:46:52.230Z,11.30
2023-03-11T14:49:40.101Z,11.50
2023-03-11T14:52:37.274Z,11.50
2023-03-11T14:55:30.757Z,11.40
2023-03-11T14:58:17.554Z,11.30
2023-03-11T15:01:30.906Z,11.20
2023-03-11T15:04:29.421Z,11.20
2023-03-11T15:07:20.671Z,11.20
2023-03-11T15:10:09.960Z,11.10
2023-03-11T15:13:09.240Z,11.00
2023-03-11T15:16:01.136Z,10.80
2023-03-11T15:18:48.186Z,10.40
2023-03-11T15:21:35.089Z,10.20
2023-03-11T15:24:27.114Z,10.10
2023-03-11T15:27:30.155Z,9.90
2023-03-11T15:30:29.722Z,9.80
2023-03-11T15:33:31.055Z,9.70
2023-03-11T15:36:42.399Z,9.40
2023-03-11T15:39:32.207Z,9.20
2023-03-11T15:42:26.406Z,9.20
2023-03-11T15:45:20.598Z,9.00
2023-03-11T15:48:13.693Z,8.90
2023-03-11T15:51:00.777Z,8.80
2023-03-11T15:53:48.863Z,8.70
2023-03-11T15:56:35.961Z,8.50
2023-03-11T15:59:23.345Z,8.30
2023-03-11T16:02:32.050Z,8.30
2023-03-11T16:05:21.845Z,8.20
2023-03-11T16:08:08.867Z,8.20
2023-03-11T16:10:55.662Z,8.00
2023-03-11T16:13:43.146Z,8.00
2023-03-11T16:16:29.998Z,7.90
2023-03-11T16:19:16.841Z,7.80
2023-03-11T16:22:04.576Z,7.70
2023-03-11T16:24:52.625Z,7.70
2023-03-11T16:27:39.537Z,7.60
2023-03-11T16:30:28.752Z,7.40
2023-03-11T16:33:15.652Z,7.30
2023-03-11T16:36:03.937Z,7.20
2023-03-11T16:38:51.198Z,7.10
2023-03-11T16:41:43.886Z,7.00
2023-03-11T16:44:30.824Z,6.90
2023-03-11T16:47:18.278Z,6.80
2023-03-11T16:50:05.792Z,6.70
2023-03-11T16:52:56.838Z,6.70
2023-03-11T16:55:47.639Z,6.60
2023-03-11T16:58:34.477Z,6.60
2023-03-11T17:01:22.270Z,6.50
2023-03-11T17:04:10.402Z,6.40
2023-03-11T17:06:57.374Z,6.30
2023-03-11T17:09:44.486Z,6.20
2023-03-11T17:12:31.277Z,6.20
2023-03-11T17:15:18.289Z,6.10
2023-03-11T17:18:05.769Z,6.10
2023-03-11T17:20:52.954Z,6.10
2023-03-11T17:23:40.040Z,6.00
2023-03-11T17:26:27.774Z,6.00
2023-03-11T17:29:15.254Z,5.90
2023-03-11T17:32:03.340Z,5.90
2023-03-11T17:34:50.287Z,5.80
2023-03-11T17:37:37.094Z,5.70
2023-03-11T17:40:23.959Z,5.70
2023-03-11T17:43:10.893Z,5.60
2023-03-11T17:46:00.009Z,5.60
2023-03-11T17:48:48.642Z,5.60
2023-03-11T17:51:35.530Z,5.60
2023-03-11T17:54:22.764Z,5.60
2023-03-11T17:57:09.634Z,5.60
2023-03-11T17:59:56.610Z,5.70
2023-03-11T18:02:43.541Z,5.70
2023-03-11T18:05:30.506Z,5.70
2023-03-11T18:08:17.309Z,5.70
2023-03-11T18:11:07.378Z,5.70
2023-03-11T18:13:54.973Z,5.70
2023-03-11T18:16:41.986Z,5.70
2023-03-11T18:19:28.862Z,5.70
2023-03-11T18:22:16.227Z,5.70
2023-03-11T18:25:03.162Z,5.60
2023-03-11T18:27:50.174Z,5.60
2023-03-11T18:30:38.127Z,5.60
2023-03-11T18:33:25.168Z,5.60
2023-03-11T18:36:23.835Z,5.50
2023-03-11T18:39:12.698Z,5.60
2023-03-11T18:41:59.544Z,5.50
2023-03-11T18:44:46.431Z,5.50
2023-03-11T18:47:36.376Z,5.50
2023-03-11T18:50:23.157Z,5.50
2023-03-11T18:53:10.067Z,5.40
2023-03-11T18:56:06.256Z,5.40
2023-03-11T18:58:54.095Z,5.40
2023-03-11T19:01:40.868Z,5.30
2023-03-11T19:04:28.586Z,5.30
2023-03-11T19:07:15.348Z,5.40
2023-03-11T19:10:02.284Z,5.30
2023-03-11T19:12:49.208Z,5.30
2023-03-11T19:15:42.787Z,5.30
2023-03-11T19:18:29.616Z,5.30
2023-03-11T19:21:17.070Z,5.30
2023-03-11T19:24:04.261Z,5.30
2023-03-11T19:26:51.128Z,5.20
2023-03-11T19:29:38.028Z,5.20
2023-03-11T19:32:24.960Z,5.10
2023-03-11T19:35:14.272Z,5.10
2023-03-11T19:38:01.275Z,5.00
2023-03-11T19:41:00.364Z,5.00
2023-03-11T19:43:48.276Z,4.90
2023-03-11T19:46:36.456Z,4.90
2023-03-11T19:49:23.412Z,4.80
2023-03-11T19:52:11.184Z,4.80
2023-03-11T19:54:57.959Z,5.00
2023-03-11T19:57:44.835Z,4.80
2023-03-11T20:00:31.683Z,4.70
2023-03-11T20:03:19.311Z,4.70
2023-03-11T20:06:07.116Z,4.60
2023-03-11T20:08:54.059Z,4.40
2023-03-11T20:11:41.377Z,4.30
2023-03-11T20:14:28.235Z,4.20
2023-03-11T20:17:15.167Z,4.10
2023-03-11T20:20:02.056Z,4.00
2023-03-11T20:22:49.406Z,3.90
2023-03-11T20:25:41.729Z,3.80
2023-03-11T20:28:28.774Z,3.60
2023-03-11T20:31:21.289Z,3.60
2023-03-11T20:34:09.037Z,3.50
2023-03-11T20:36:55.938Z,3.50
2023-03-11T20:39:42.806Z,3.40
2023-03-11T20:42:29.729Z,3.40
2023-03-11T20:45:21.628Z,3.40
2023-03-11T20:48:08.813Z,3.40
2023-03-11T20:51:00.394Z,3.40
2023-03-11T20:53:47.766Z,3.40
2023-03-11T20:56:35.242Z,3.30
2023-03-11T20:59:22.184Z,3.30
2023-03-11T21:02:13.931Z,3.30
2023-03-11T21:05:00.916Z,3.20
2023-03-11T21:07:49.246Z,3.10
2023-03-11T21:10:36.291Z,3.10
2023-03-11T21:13:23.124Z,3.00
2023-03-11T21:16:10.512Z,3.10
2023-03-11T21:18:57.850Z,3.10
2023-03-11T21:21:45.001Z,3.00
2023-03-11T21:24:31.838Z,3.00
2023-03-11T21:27:20.948Z,3.00
2023-03-11T21:30:08.602Z,3.00
2023-03-11T21:32:55.714Z,3.00
2023-03-11T21:35:42.989Z,2.90
2023-03-11T21:38:30.741Z,3.00
2023-03-11T21:41:19.412Z,3.00
2023-03-11T21:44:06.302Z,2.90
2023-03-11T21:46:53.190Z,2.80
2023-03-11T21:49:40.161Z,2.70
2023-03-11T21:52:27.505Z,2.70
2023-03-11T21:55:14.459Z,2.70
2023-03-11T21:58:01.373Z,2.60
2023-03-11T22:00:48.967Z,2.50
2023-03-11T22:03:36.409Z,2.50
2023-03-11T22:06:23.478Z,2.50
2023-03-11T22:09:10.521Z,2.60
2023-03-11T22:11:57.628Z,2.70
2023-03-11T22:14:45.054Z,2.70
2023-03-11T22:17:32.057Z,2.70
2023-03-11T22:20:19.325Z,2.60
2023-03-11T22:23:06.303Z,2.60
2023-03-11T22:25:53.173Z,2.70
2023-03-11T22:28:40.024Z,2.70
2023-03-11T22:31:26.876Z,2.80
2023-03-11T22:34:13.801Z,2.80
2023-03-11T22:37:00.801Z,2.80
2023-03-11T22:39:47.726Z,2.90
2023-03-11T22:42:34.865Z,2.90
2023-03-11T22:45:22.982Z,2.90
2023-03-11T22:48:09.813Z,2.90
2023-03-11T22:50:56.931Z,3.00
2023-03-11T22:53:43.796Z,2.90
2023-03-11T22:56:30.717Z,2.90
2023-03-11T22:59:17.488Z,2.90
2023-03-11T23:02:04.406Z,2.80
2023-03-11T23:04:51.198Z,2.70
2023-03-11T23:07:38.132Z,2.70
2023-03-11T23:10:24.912Z,2.60
2023-03-11T23:13:12.540Z,2.70
2023-03-11T23:16:05.035Z,2.70
2023-03-11T23:18:53.920Z,2.80
2023-03-11T23:21:40.835Z,2.80
2023-03-11T23:24:27.703Z,2.80
2023-03-11T23:27:14.539Z,2.80
2023-03-11T23:30:01.454Z,2.80
2023-03-11T23:32:48.402Z,2.90
2023-03-11T23:35:41.453Z,2.90
2023-03-11T23:38:28.929Z,2.80
2023-03-11T23:41:19.098Z,2.70
2023-03-11T23:44:06.236Z,2.60
2023-03-11T23:46:53.064Z,2.50
2023-03-11T23:49:39.939Z,2.50
2023-03-11T23:52:27.070Z,2.50
2023-03-11T23:55:13.983Z,2.50
2023-03-11T23:58:00.784Z,2.60
